Time;durP1;ratioP1;P1;durP2;ratioP2;P2;SDS_P1;SDS_P2;PMS_P1;PMS_P2;Temp;Humidity;BMP_temperature;BMP_pressure;BME280_temperature;BME280_humidity;BME280_pressure;Samples;Min_cycle;Max_cycle;Signal;HPM_P1;HPM_P2
2022/10/01 00:00:16;;;;;;;5.00;4.50;;;10.60;99.90;;;;;;5018221;28;20406;-79
2022/10/01 00:02:42;;;;;;;5.00;4.50;;;10.50;99.90;;;;;;5034105;28;20044;-78
2022/10/01 00:05:11;;;;;;;5.00;4.50;;;10.50;99.90;;;;;;5033303;28;20033;-79
2022/10/01 00:07:42;;;;;;;5.10;4.60;;;10.50;99.90;;;;;;5034524;28;20491;-79
2022/10/01 00:10:09;;;;;;;5.30;4.80;;;10.40;99.90;;;;;;5017991;28;20475;-79
2022/10/01 00:12:36;;;;;;;5.70;5.20;;;10.40;99.90;;;;;;5017800;28;20502;-79
2022/10/01 00:15:02;;;;;;;5.50;4.80;;;10.50;99.90;;;;;;5015972;28;20483;-78
2022/10/01 00:17:28;;;;;;;4.68;4.28;;;10.40;99.90;;;;;;5029326;28;20041;-78
2022/10/01 00:19:53;;;;;;;5.20;4.70;;;10.40;99.90;;;;;;5038230;28;20395;-78
2022/10/01 00:22:19;;;;;;;5.40;4.90;;;10.40;99.90;;;;;;5037266;28;20033;-78
2022/10/01 00:24:46;;;;;;;5.72;5.13;;;10.40;99.90;;;;;;5021712;28;20483;-78
2022/10/01 00:27:12;;;;;;;5.85;4.95;;;10.40;99.90;;;;;;5035507;28;20045;-78
2022/10/01 00:29:39;;;;;;;5.05;4.55;;;10.40;99.90;;;;;;5020679;28;20049;-78
2022/10/01 00:32:05;;;;;;;5.18;4.68;;;10.50;99.90;;;;;;5020972;28;20051;-79
2022/10/01 00:34:30;;;;;;;5.30;4.80;;;10.40;99.90;;;;;;5021915;28;20458;-78
2022/10/01 00:36:56;;;;;;;5.38;4.88;;;10.30;99.90;;;;;;5036671;28;20052;-77
2022/10/01 00:39:22;;;;;;;6.18;5.57;;;10.40;99.90;;;;;;5036591;28;20041;-79
2022/10/01 00:41:49;;;;;;;5.50;4.90;;;10.40;99.90;;;;;;5034286;28;20078;-78
2022/10/01 00:44:34;;;;;;;6.38;5.07;;;10.30;99.90;;;;;;5036654;28;20087;-78
2022/10/01 00:47:02;;;;;;;5.70;5.15;;;10.40;99.90;;;;;;5038500;28;20506;-79
2022/10/01 00:49:29;;;;;;;6.10;5.40;;;10.30;99.90;;;;;;5021168;28;20041;-79
2022/10/01 00:52:02;;;;;;;5.95;5.35;;;10.30;99.90;;;;;;5036281;28;20125;-78
2022/10/01 00:54:35;;;;;;;5.68;5.15;;;10.30;99.90;;;;;;5020989;28;20033;-78
2022/10/01 00:57:01;;;;;;;;;;;10.30;99.90;;;;;;5019849;28;20039;-78
2022/10/01 00:59:28;;;;;;;5.63;4.85;;;10.30;99.90;;;;;;5021574;28;19924;-78
2022/10/01 01:01:53;;;;;;;5.45;4.93;;;10.30;99.90;;;;;;5020098;28;20037;-78
2022/10/01 01:04:19;;;;;;;5.95;5.18;;;10.30;99.90;;;;;;5037906;28;20099;-79
2022/10/01 01:07:00;;;;;;;5.82;5.28;;;10.30;99.90;;;;;;5021410;28;20044;-79
2022/10/01 01:09:35;;;;;;;6.05;5.45;;;10.30;99.90;;;;;;5022397;28;20041;-78
2022/10/01 01:12:43;;;;;;;5.85;4.88;;;10.30;99.90;;;;;;5019908;28;20033;-78
2022/10/01 01:15:13;;;;;;;6.38;5.30;;;10.30;99.90;;;;;;5033950;28;20088;-79
2022/10/01 01:17:57;;;;;;;6.72;5.25;;;10.30;99.90;;;;;;5038203;28;20041;-78
2022/10/01 01:20:41;;;;;;;6.63;5.20;;;10.30;99.90;;;;;;5021315;28;20029;-79
2022/10/01 01:23:13;;;;;;;5.40;4.88;;;10.30;99.90;;;;;;5053858;28;20044;-78
2022/10/01 01:25:59;;;;;;;6.13;5.40;;;10.30;99.90;;;;;;5018671;28;20038;-79
2022/10/01 01:28:31;;;;;;;6.25;5.55;;;10.30;99.90;;;;;;5019701;28;20487;-78
2022/10/01 01:31:02;;;;;;;6.47;5.45;;;10.30;99.90;;;;;;5018591;28;20491;-78
2022/10/01 01:33:31;;;;;;;6.63;5.82;;;10.30;99.90;;;;;;5020439;28;20418;-77
2022/10/01 01:36:04;;;;;;;6.22;5.20;;;10.30;99.90;;;;;;5033495;28;20135;-78
2022/10/01 01:38:37;;;;;;;6.80;5.65;;;10.30;99.90;;;;;;5016804;28;20033;-78
2022/10/01 01:41:04;;;;;;;6.32;5.63;;;10.30;99.90;;;;;;5022956;28;20108;-78
2022/10/01 01:43:39;;;;;;;5.47;4.93;;;10.30;99.90;;;;;;5036387;28;20110;-77
2022/10/01 01:46:09;;;;;;;5.60;4.97;;;10.30;99.90;;;;;;5019866;28;20065;-77
2022/10/01 01:48:37;;;;;;;5.00;4.50;;;10.30;99.90;;;;;;5042389;28;20114;-76
2022/10/01 01:51:35;;;;;;;5.93;4.88;;;10.30;99.90;;;;;;5025933;28;20068;-78
2022/10/01 01:54:01;;;;;;;5.40;4.50;;;10.30;99.90;;;;;;4977648;28;20133;-78
2022/10/01 01:56:29;;;;;;;5.53;4.82;;;10.30;99.90;;;;;;5019771;28;20068;-78
2022/10/01 01:58:57;;;;;;;5.70;5.10;;;10.30;99.90;;;;;;5036707;28;20043;-77
2022/10/01 02:01:42;;;;;;;5.00;4.43;;;10.30;99.90;;;;;;5015646;28;20110;-77
2022/10/01 02:04:14;;;;;;;5.20;4.50;;;10.30;99.90;;;;;;5034016;28;20403;-78
2022/10/01 02:07:06;;;;;;;4.80;4.30;;;10.30;99.90;;;;;;5019837;28;20096;-78
2022/10/01 02:09:49;;;;;;;6.03;4.38;;;10.30;99.90;;;;;;5017839;28;20337;-78
2022/10/01 02:12:45;;;;;;;4.80;4.30;;;10.30;99.90;;;;;;5029803;28;20065;-78
2022/10/01 02:15:26;;;;;;;5.22;4.20;;;10.30;99.90;;;;;;5034575;28;20461;-77
2022/10/01 02:18:02;;;;;;;5.20;4.22;;;10.30;99.90;;;;;;5018328;28;20041;-77
2022/10/01 02:20:52;;;;;;;6.07;4.30;;;10.30;99.90;;;;;;5020751;28;20076;-75
2022/10/01 02:23:28;;;;;;;4.38;3.85;;;10.30;99.90;;;;;;5035979;28;20525;-79
2022/10/01 02:26:01;;;;;;;4.70;4.20;;;10.30;99.90;;;;;;5034839;28;20029;-77
2022/10/01 02:28:31;;;;;;;4.75;3.90;;;10.30;99.90;;;;;;5036907;28;20049;-77
2022/10/01 02:30:59;;;;;;;4.63;3.88;;;10.30;99.90;;;;;;5019779;28;20602;-78
2022/10/01 02:33:29;;;;;;;4.05;3.42;;;10.30;99.90;;;;;;5036275;28;20064;-78
2022/10/01 02:35:57;;;;;;;4.85;3.65;;;10.40;99.90;;;;;;5018099;28;20041;-78
2022/10/01 02:38:24;;;;;;;4.50;3.55;;;10.40;99.90;;;;;;5017125;28;20415;-79
2022/10/01 02:40:53;;;;;;;4.00;3.60;;;10.40;99.90;;;;;;5013349;28;20388;-77
2022/10/01 02:43:40;;;;;;;4.38;3.40;;;10.40;99.90;;;;;;5037286;28;20041;-77
2022/10/01 02:46:43;;;;;;;2.92;2.63;;;10.40;99.90;;;;;;5031760;28;20131;-78
2022/10/01 02:49:12;;;;;;;3.87;3.17;;;10.40;99.90;;;;;;5026295;28;20048;-78
2022/10/01 02:52:17;;;;;;;3.50;2.95;;;10.40;99.90;;;;;;5034949;28;20628;-79
2022/10/01 02:54:53;;;;;;;3.70;3.20;;;10.40;99.90;;;;;;5034931;28;20499;-79
2022/10/01 02:57:22;;;;;;;3.53;3.00;;;10.40;99.90;;;;;;5015043;28;20037;-78
2022/10/01 03:00:08;;;;;;;3.90;3.03;;;10.40;99.90;;;;;;5053912;28;20047;-78
2022/10/01 03:02:34;;;;;;;3.40;2.83;;;10.40;99.90;;;;;;5016589;28;20033;-78
2022/10/01 03:04:59;;;;;;;4.00;3.10;;;10.40;99.90;;;;;;5021505;28;20037;-78
2022/10/01 03:07:28;;;;;;;3.90;2.97;;;10.50;99.90;;;;;;5033143;28;20543;-78
2022/10/01 03:09:54;;;;;;;3.42;3.13;;;10.50;99.90;;;;;;5036958;28;20037;-78
2022/10/01 03:12:22;;;;;;;2.95;2.45;;;10.50;99.90;;;;;;5037133;28;20430;-78
2022/10/01 03:14:48;;;;;;;3.65;2.35;;;10.50;99.90;;;;;;5020946;28;20495;-78
2022/10/01 03:17:14;;;;;;;2.95;2.38;;;10.50;99.90;;;;;;5030628;28;20029;-78
2022/10/01 03:19:40;;;;;;;2.42;2.22;;;10.50;99.90;;;;;;5034877;28;20483;-77
2022/10/01 03:22:06;;;;;;;2.92;2.50;;;10.50;99.90;;;;;;5024230;28;20040;-81
2022/10/01 03:24:32;;;;;;;3.13;2.40;;;10.50;99.90;;;;;;5010829;28;20510;-78
2022/10/01 03:26:58;;;;;;;2.80;2.47;;;10.50;99.90;;;;;;5026713;28;20044;-77
2022/10/01 03:29:24;;;;;;;2.75;2.30;;;10.50;99.90;;;;;;5035434;28;20380;-77
2022/10/01 03:31:50;;;;;;;2.58;2.30;;;10.50;99.90;;;;;;5032082;28;20044;-78
2022/10/01 03:34:16;;;;;;;2.97;2.30;;;10.50;99.90;;;;;;5031711;28;20037;-78
2022/10/01 03:36:42;;;;;;;3.08;2.22;;;10.50;99.90;;;;;;5019038;28;20117;-78
2022/10/01 03:39:07;;;;;;;2.90;2.53;;;10.50;99.90;;;;;;5015421;28;20029;-77
2022/10/01 03:41:33;;;;;;;3.33;2.47;;;10.50;99.90;;;;;;5019890;28;20043;-78
2022/10/01 03:43:59;;;;;;;3.03;2.50;;;10.50;99.90;;;;;;5015530;28;20656;-78
2022/10/01 03:46:25;;;;;;;2.72;2.20;;;10.50;99.90;;;;;;5032389;28;20045;-78
2022/10/01 03:48:51;;;;;;;3.03;2.03;;;10.50;99.90;;;;;;5017759;28;20051;-78
2022/10/01 03:51:19;;;;;;;4.55;2.05;;;10.50;99.90;;;;;;5031386;28;20041;-77
2022/10/01 03:53:46;;;;;;;2.65;2.13;;;10.50;99.90;;;;;;5026381;28;20048;-78
2022/10/01 03:56:12;;;;;;;2.65;2.03;;;10.50;99.90;;;;;;5034851;28;20044;-78
2022/10/01 03:58:38;;;;;;;2.30;2.00;;;10.50;99.90;;;;;;5017653;28;20136;-77
2022/10/01 04:01:04;;;;;;;2.42;2.22;;;10.60;99.90;;;;;;5034307;28;20557;-79
2022/10/01 04:03:29;;;;;;;2.47;1.95;;;10.60;99.90;;;;;;5034795;28;20040;-78
2022/10/01 04:05:55;;;;;;;2.10;1.88;;;10.60;99.90;;;;;;5018347;28;20544;-78
2022/10/01 04:08:21;;;;;;;3.15;1.90;;;10.60;99.90;;;;;;5014831;28;20079;-77
2022/10/01 04:10:48;;;;;;;1.92;1.60;;;10.60;99.90;;;;;;5018341;28;20033;-77
2022/10/01 04:13:14;;;;;;;1.55;1.38;;;10.60;99.90;;;;;;5033680;28;20041;-78
2022/10/01 04:15:40;;;;;;;1.77;1.60;;;10.60;99.90;;;;;;5027536;28;20041;-78
2022/10/01 04:18:06;;;;;;;1.45;1.35;;;10.60;99.90;;;;;;5034995;28;20037;-78
2022/10/01 04:20:33;;;;;;;1.35;1.25;;;10.60;99.90;;;;;;5018802;28;20120;-78
2022/10/01 04:22:59;;;;;;;1.70;1.50;;;10.60;99.90;;;;;;5018658;28;20029;-78
2022/10/01 04:25:26;;;;;;;1.50;1.25;;;10.70;99.90;;;;;;5035687;28;20116;-79
2022/10/01 04:28:00;;;;;;;1.52;1.42;;;10.70;99.90;;;;;;5034064;28;20041;-79
2022/10/01 04:30:30;;;;;;;1.30;1.20;;;10.70;99.90;;;;;;5018712;28;20059;-79
2022/10/01 04:32:55;;;;;;;1.35;1.23;;;10.70;99.90;;;;;;5034774;28;20037;-78
2022/10/01 04:35:22;;;;;;;1.70;1.60;;;10.70;99.90;;;;;;5035513;28;20037;-78
2022/10/01 04:37:54;;;;;;;1.25;1.15;;;10.70;99.90;;;;;;5034455;28;20086;-78
2022/10/01 04:40:20;;;;;;;2.83;1.30;;;10.70;99.90;;;;;;5031354;28;20056;-77
2022/10/01 04:42:46;;;;;;;1.58;1.30;;;10.70;99.90;;;;;;5018026;28;20036;-77
2022/10/01 04:45:12;;;;;;;1.40;1.30;;;10.80;99.90;;;;;;5035142;28;20099;-77
2022/10/01 04:47:45;;;;;;;1.40;1.30;;;10.80;99.90;;;;;;5035033;28;20047;-77
2022/10/01 04:50:11;;;;;;;1.52;1.40;;;10.80;99.90;;;;;;5036562;28;20041;-77
2022/10/01 04:52:37;;;;;;;1.65;1.40;;;10.80;99.90;;;;;;5036524;28;20043;-79
2022/10/01 04:55:02;;;;;;;1.52;1.42;;;10.80;99.90;;;;;;5031532;28;20033;-77
2022/10/01 04:57:28;;;;;;;2.03;1.52;;;10.90;99.90;;;;;;5036245;28;20039;-78
2022/10/01 04:59:54;;;;;;;1.75;1.65;;;10.80;99.90;;;;;;5020576;28;20475;-79
2022/10/01 05:02:20;;;;;;;1.75;1.63;;;10.90;99.90;;;;;;5036657;28;20063;-77
2022/10/01 05:04:46;;;;;;;2.35;2.00;;;11.00;99.90;;;;;;5036384;28;20490;-77
2022/10/01 05:07:12;;;;;;;1.70;1.60;;;11.00;99.90;;;;;;5046694;28;20072;-77
2022/10/01 05:09:37;;;;;;;2.15;1.90;;;11.00;99.90;;;;;;5023832;28;20044;-78
2022/10/01 05:12:03;;;;;;;2.42;2.20;;;11.10;99.90;;;;;;5020427;28;20124;-78
2022/10/01 05:14:29;;;;;;;2.10;1.88;;;11.00;99.90;;;;;;5035555;28;20120;-78
2022/10/01 05:16:54;;;;;;;2.00;1.63;;;11.10;99.90;;;;;;5023453;28;20043;-76
2022/10/01 05:19:20;;;;;;;2.33;2.13;;;11.10;99.90;;;;;;5039751;28;20041;-77
2022/10/01 05:21:45;;;;;;;2.65;2.35;;;11.10;99.90;;;;;;5023537;28;20048;-79
2022/10/01 05:24:11;;;;;;;2.30;2.00;;;11.20;99.90;;;;;;5024512;28;20048;-78
2022/10/01 05:26:38;;;;;;;2.63;2.10;;;11.20;99.90;;;;;;5039893;28;20040;-77
2022/10/01 05:29:04;;;;;;;2.75;2.42;;;11.20;99.90;;;;;;5022976;28;20033;-78
2022/10/01 05:31:29;;;;;;;2.60;2.40;;;11.20;99.90;;;;;;5018659;28;20079;-78
2022/10/01 05:33:55;;;;;;;2.65;2.45;;;11.30;99.90;;;;;;5021042;28;20045;-76
2022/10/01 05:36:20;;;;;;;3.00;2.65;;;11.20;99.90;;;;;;5040382;28;20045;-77
2022/10/01 05:38:51;;;;;;;3.25;2.72;;;11.30;99.90;;;;;;5019562;28;20419;-78
2022/10/01 05:41:17;;;;;;;3.70;3.05;;;11.30;99.90;;;;;;5037652;28;20096;-78
2022/10/01 05:43:43;;;;;;;3.65;3.22;;;11.30;99.90;;;;;;5013646;28;20044;-77
2022/10/01 05:46:09;;;;;;;3.63;3.30;;;11.30;99.90;;;;;;5015359;28;20522;-78
2022/10/01 05:48:35;;;;;;;3.85;3.45;;;11.30;99.90;;;;;;5039186;28;20513;-78
2022/10/01 05:51:06;;;;;;;3.97;3.00;;;11.30;99.90;;;;;;5040138;28;20037;-78
2022/10/01 05:53:35;;;;;;;3.72;3.42;;;11.30;99.90;;;;;;5021458;28;20045;-78
2022/10/01 05:56:02;;;;;;;3.15;2.65;;;11.30;99.90;;;;;;5043098;28;20060;-79
2022/10/01 05:58:27;;;;;;;3.50;3.20;;;11.30;99.90;;;;;;5043971;28;20055;-78
2022/10/01 06:00:54;;;;;;;3.42;3.13;;;11.20;99.90;;;;;;5040545;28;20100;-77
2022/10/01 06:03:20;;;;;;;3.33;3.03;;;11.20;99.90;;;;;;5037784;28;20049;-79
2022/10/01 06:05:46;;;;;;;4.07;3.47;;;11.20;99.90;;;;;;5019670;28;20037;-78
2022/10/01 06:08:12;;;;;;;3.53;3.22;;;11.20;99.90;;;;;;5027208;28;20514;-77
2022/10/01 06:10:38;;;;;;;4.03;3.60;;;11.20;99.90;;;;;;5034718;28;20511;-81
2022/10/01 06:13:04;;;;;;;4.00;3.60;;;11.20;99.90;;;;;;5034134;28;20383;-79
2022/10/01 06:15:33;;;;;;;4.25;3.83;;;11.30;99.90;;;;;;5031380;28;20113;-84
2022/10/01 06:18:10;;;;;;;4.25;3.85;;;11.30;99.90;;;;;;5014086;28;20045;-86
2022/10/01 06:20:36;;;;;;;4.32;3.92;;;11.40;99.90;;;;;;5037875;28;20502;-85
2022/10/01 06:23:06;;;;;;;4.95;4.15;;;11.50;99.90;;;;;;5037057;28;20124;-84
2022/10/01 06:25:36;;;;;;;4.53;4.13;;;11.50;99.90;;;;;;5022195;28;20068;-85
2022/10/01 06:28:01;;;;;;;5.00;4.50;;;11.60;99.90;;;;;;5018995;28;20483;-84
2022/10/01 06:30:30;;;;;;;4.60;4.20;;;11.60;99.90;;;;;;5015953;28;20088;-82
2022/10/01 06:33:06;;;;;;;4.35;3.90;;;11.60;99.90;;;;;;5019365;28;20041;-81
2022/10/01 06:35:34;;;;;;;4.70;4.15;;;11.60;99.90;;;;;;5033637;28;20092;-76
2022/10/01 06:38:00;;;;;;;4.57;4.18;;;11.60;99.90;;;;;;5035351;28;20029;-79
2022/10/01 06:40:28;;;;;;;4.22;3.80;;;11.60;99.90;;;;;;5037496;28;20037;-81
2022/10/01 06:42:57;;;;;;;4.60;4.18;;;11.70;99.90;;;;;;5020230;28;20043;-79
2022/10/01 06:45:28;;;;;;;4.82;4.30;;;11.70;99.90;;;;;;5034321;28;20044;-78
2022/10/01 06:48:01;;;;;;;4.80;4.30;;;11.70;99.90;;;;;;5037418;28;20056;-78
2022/10/01 06:50:27;;;;;;;4.50;4.10;;;11.70;99.90;;;;;;5038464;28;20073;-78
2022/10/01 06:52:53;;;;;;;4.30;3.90;;;11.70;99.90;;;;;;5037918;28;20052;-78
2022/10/01 06:55:30;;;;;;;3.78;3.47;;;11.70;99.90;;;;;;5021817;28;20044;-78
2022/10/01 06:57:59;;;;;;;4.05;3.60;;;11.70;99.90;;;;;;5021559;28;20162;-78
2022/10/01 07:00:26;;;;;;;4.18;3.78;;;11.80;99.90;;;;;;5017974;28;20098;-78
2022/10/01 07:02:52;;;;;;;4.03;3.65;;;11.70;99.90;;;;;;5036078;28;20042;-78
2022/10/01 07:05:17;;;;;;;4.22;3.55;;;11.80;99.90;;;;;;5032368;28;20067;-77
2022/10/01 07:07:43;;;;;;;3.75;3.28;;;11.90;99.90;;;;;;5017167;28;20041;-77
2022/10/01 07:10:10;;;;;;;4.05;3.65;;;11.90;99.90;;;;;;5032052;28;20049;-77
2022/10/01 07:12:36;;;;;;;3.85;3.45;;;12.00;99.90;;;;;;5051610;28;20046;-78
2022/10/01 07:15:07;;;;;;;4.22;3.63;;;12.00;99.90;;;;;;5030209;28;20087;-78
2022/10/01 07:17:33;;;;;;;4.38;3.67;;;12.00;99.90;;;;;;5018965;28;20136;-79
2022/10/01 07:20:00;;;;;;;4.15;3.40;;;12.10;99.90;;;;;;5019073;28;20043;-79
2022/10/01 07:22:26;;;;;;;3.60;3.30;;;12.10;99.90;;;;;;5018238;28;20049;-77
2022/10/01 07:24:51;;;;;;;4.65;3.58;;;12.20;99.90;;;;;;5023460;28;20505;-78
2022/10/01 07:27:18;;;;;;;4.15;3.75;;;12.20;99.90;;;;;;5024937;28;20136;-78
2022/10/01 07:29:44;;;;;;;3.55;3.25;;;12.20;99.90;;;;;;5025766;28;20086;-77
2022/10/01 07:32:09;;;;;;;4.18;3.38;;;12.20;99.90;;;;;;5037222;28;20405;-78
2022/10/01 07:34:39;;;;;;;3.63;3.33;;;12.20;99.90;;;;;;5037454;28;20052;-78
2022/10/01 07:37:05;;;;;;;3.47;2.97;;;12.30;99.90;;;;;;5028048;28;20041;-77
2022/10/01 07:39:31;;;;;;;3.50;3.20;;;12.30;99.90;;;;;;5015469;28;20041;-79
2022/10/01 07:41:57;;;;;;;3.70;3.15;;;12.30;99.90;;;;;;5037921;28;20047;-80
2022/10/01 07:44:23;;;;;;;3.67;3.25;;;12.40;99.90;;;;;;5021441;28;20052;-79
2022/10/01 07:46:49;;;;;;;3.38;3.08;;;12.40;99.90;;;;;;5036186;28;20037;-81
2022/10/01 07:49:15;;;;;;;3.90;3.28;;;12.50;99.90;;;;;;5042102;28;20037;-81
2022/10/01 07:51:47;;;;;;;3.88;3.00;;;12.60;99.90;;;;;;5023815;28;20065;-79
2022/10/01 07:54:13;;;;;;;3.70;2.92;;;12.60;99.90;;;;;;5036991;28;20045;-78
2022/10/01 07:56:38;;;;;;;3.70;3.20;;;12.70;99.90;;;;;;5041196;28;20031;-78
2022/10/01 07:59:04;;;;;;;5.45;3.30;;;12.80;99.90;;;;;;5040924;28;20037;-78
2022/10/01 08:01:31;;;;;;;4.72;3.85;;;12.90;99.90;;;;;;5034025;28;20406;-80
2022/10/01 08:03:56;;;;;;;4.10;3.58;;;13.00;99.90;;;;;;5041154;28;20112;-79
2022/10/01 08:06:22;;;;;;;3.97;3.35;;;13.10;99.90;;;;;;5024740;28;20067;-78
2022/10/01 08:08:48;;;;;;;4.55;3.20;;;13.10;99.90;;;;;;5037793;28;20033;-79
2022/10/01 08:11:16;;;;;;;4.18;3.03;;;13.20;99.90;;;;;;5020716;28;20041;-78
2022/10/01 08:13:44;;;;;;;2.72;2.50;;;13.20;99.90;;;;;;5046246;28;20067;-79
2022/10/01 08:16:10;;;;;;;3.47;3.00;;;13.20;99.90;;;;;;5036246;28;20041;-78
2022/10/01 08:18:36;;;;;;;3.53;2.83;;;13.30;99.90;;;;;;5031244;28;20059;-80
2022/10/01 08:21:03;;;;;;;3.17;2.60;;;13.40;99.90;;;;;;5015339;28;20568;-79
2022/10/01 08:23:32;;;;;;;3.58;2.70;;;13.50;99.90;;;;;;5033477;28;20067;-79
2022/10/01 08:26:06;;;;;;;2.65;2.38;;;13.60;99.90;;;;;;5014621;28;20113;-79
2022/10/01 08:28:33;;;;;;;3.22;2.92;;;13.60;99.90;;;;;;5032738;28;20499;-78
2022/10/01 08:31:08;;;;;;;3.20;2.88;;;13.60;99.90;;;;;;5050733;28;20423;-79
2022/10/01 08:33:34;;;;;;;2.58;2.38;;;13.70;99.90;;;;;;5033885;28;20037;-78
2022/10/01 08:36:01;;;;;;;2.65;2.30;;;13.90;99.90;;;;;;5031645;28;20045;-78
2022/10/01 08:38:27;;;;;;;2.30;2.10;;;14.00;99.90;;;;;;5030729;28;20049;-80
2022/10/01 08:40:53;;;;;;;3.03;2.00;;;14.10;99.90;;;;;;5037776;28;20051;-78
2022/10/01 08:43:32;;;;;;;2.28;1.77;;;14.20;99.90;;;;;;5038388;28;20037;-80
2022/10/01 08:46:12;;;;;;;2.00;1.80;;;14.40;99.90;;;;;;5021782;28;20041;-79
2022/10/01 08:48:58;;;;;;;1.80;1.52;;;14.60;99.90;;;;;;5015249;28;20635;-78
2022/10/01 08:51:47;;;;;;;1.30;1.20;;;14.80;99.90;;;;;;5039046;28;20044;-79
2022/10/01 08:54:38;;;;;;;1.20;1.10;;;15.00;99.90;;;;;;5036167;28;20040;-79
2022/10/01 08:57:08;;;;;;;0.60;0.60;;;15.10;99.90;;;;;;5026634;28;20042;-79
2022/10/01 08:59:51;;;;;;;0.98;0.70;;;15.10;99.90;;;;;;5037433;28;20064;-79
2022/10/01 09:02:31;;;;;;;0.55;0.43;;;15.00;99.90;;;;;;5032185;28;20060;-79
2022/10/01 09:05:00;;;;;;;0.85;0.50;;;14.80;99.90;;;;;;5037807;28;20462;-79
2022/10/01 09:07:40;;;;;;;0.40;0.40;;;14.70;99.90;;;;;;5038364;28;20072;-79
2022/10/01 09:10:34;;;;;;;0.52;0.52;;;14.80;99.90;;;;;;5014106;28;20102;-80
2022/10/01 09:13:38;;;;;;;0.68;0.50;;;14.80;99.90;;;;;;5030545;28;20495;-79
2022/10/01 09:16:29;;;;;;;0.80;0.60;;;15.00;99.90;;;;;;5010564;28;20502;-79
2022/10/01 09:19:01;;;;;;;0.40;0.40;;;15.20;99.90;;;;;;5036483;28;20085;-79
2022/10/01 09:21:52;;;;;;;0.30;0.30;;;15.40;99.90;;;;;;5040076;28;20041;-79
2022/10/01 09:24:42;;;;;;;0.55;0.30;;;15.40;99.90;;;;;;5039775;28;20403;-79
2022/10/01 09:27:15;;;;;;;0.30;0.30;;;15.40;99.90;;;;;;4991481;28;20057;-79
2022/10/01 09:29:51;;;;;;;0.20;0.20;;;15.40;99.90;;;;;;5013771;28;20037;-78
2022/10/01 09:32:23;;;;;;;0.32;0.30;;;15.40;99.90;;;;;;5017806;28;20041;-79
2022/10/01 09:34:49;;;;;;;0.40;0.40;;;15.40;99.90;;;;;;5038981;28;20037;-80
2022/10/01 09:37:25;;;;;;;0.50;0.40;;;15.30;99.90;;;;;;5025851;28;20291;-80
2022/10/01 09:40:11;;;;;;;1.80;0.50;;;15.40;99.90;;;;;;5057253;28;20032;-83
2022/10/01 09:42:37;;;;;;;0.30;0.30;;;15.50;99.90;;;;;;5020130;28;20178;-79
2022/10/01 09:45:05;;;;;;;1.45;0.40;;;15.60;99.90;;;;;;5020203;28;20095;-80
2022/10/01 09:47:32;;;;;;;0.60;0.50;;;15.60;99.90;;;;;;5023123;28;20074;-79
2022/10/01 09:50:00;;;;;;;0.60;0.60;;;15.60;99.90;;;;;;5020584;28;20040;-79
2022/10/01 09:52:35;;;;;;;0.60;0.60;;;15.50;99.90;;;;;;5021527;28;20103;-79
2022/10/01 09:55:10;;;;;;;1.00;0.52;;;15.30;99.90;;;;;;5020742;28;20029;-80
2022/10/01 09:57:42;;;;;;;1.42;0.80;;;15.20;99.90;;;;;;5040601;28;20055;-79
2022/10/01 10:00:10;;;;;;;0.75;0.75;;;15.20;99.90;;;;;;5039627;28;20529;-79
2022/10/01 10:02:45;;;;;;;1.02;0.80;;;15.20;99.90;;;;;;5038102;28;20047;-79
2022/10/01 10:05:23;;;;;;;0.70;0.60;;;15.30;99.90;;;;;;5014881;28;20076;-79
2022/10/01 10:08:01;;;;;;;1.05;0.80;;;15.30;99.90;;;;;;5021706;28;20052;-80
2022/10/01 10:10:38;;;;;;;0.98;0.70;;;15.40;99.90;;;;;;5018687;28;20045;-79
2022/10/01 10:13:13;;;;;;;1.05;0.82;;;15.50;99.90;;;;;;5030886;28;20052;-79
2022/10/01 10:15:49;;;;;;;0.80;0.75;;;15.70;99.90;;;;;;5019948;28;20128;-79
2022/10/01 10:18:24;;;;;;;0.75;0.75;;;15.90;99.90;;;;;;5019709;28;20079;-80
2022/10/01 10:20:52;;;;;;;1.20;0.60;;;16.00;99.90;;;;;;5013666;28;20041;-79
2022/10/01 10:23:28;;;;;;;0.50;0.50;;;16.00;99.90;;;;;;5019712;28;20033;-78
2022/10/01 10:26:06;;;;;;;1.10;0.60;;;15.80;99.90;;;;;;5025412;22;20113;-78
2022/10/01 10:28:41;;;;;;;1.02;0.40;;;15.70;99.90;;;;;;5023174;28;20037;-79
2022/10/01 10:31:17;;;;;;;1.10;0.80;;;15.60;99.90;;;;;;5017715;28;20045;-80
2022/10/01 10:33:52;;;;;;;0.80;0.73;;;15.60;99.90;;;;;;5016104;28;20049;-81
2022/10/01 10:36:20;;;;;;;0.80;0.57;;;15.50;99.90;;;;;;4984208;28;20042;-81
2022/10/01 10:38:48;;;;;;;1.10;0.60;;;15.50;99.90;;;;;;5002050;28;20485;-81
2022/10/01 10:41:18;;;;;;;1.63;0.70;;;15.40;99.90;;;;;;4986010;28;20042;-81
2022/10/01 10:43:50;;;;;;;0.40;0.35;;;15.40;99.90;;;;;;4981012;28;20053;-83
2022/10/01 10:46:32;;;;;;;1.98;0.60;;;15.20;99.90;;;;;;4986093;28;20046;-83
2022/10/01 10:49:04;;;;;;;0.50;0.40;;;15.10;99.90;;;;;;4984323;28;20046;-81
2022/10/01 10:51:43;;;;;;;0.45;0.40;;;15.00;99.90;;;;;;4991004;28;20049;-81
2022/10/01 10:54:18;;;;;;;1.20;0.75;;;15.10;99.90;;;;;;4978508;28;20580;-79
2022/10/01 10:56:59;;;;;;;1.50;0.40;;;15.20;99.90;;;;;;4980842;28;20041;-78
2022/10/01 10:59:25;;;;;;;0.52;0.40;;;15.30;99.90;;;;;;4982140;28;20068;-80
2022/10/01 11:01:52;;;;;;;0.82;0.30;;;15.20;99.90;;;;;;4976765;28;20091;-80
2022/10/01 11:04:25;;;;;;;0.75;0.35;;;15.10;99.90;;;;;;4996455;28;20046;-79
2022/10/01 11:06:56;;;;;;;0.40;0.32;;;15.00;99.90;;;;;;4999028;28;20049;-80
2022/10/01 11:09:28;;;;;;;0.95;0.30;;;14.70;99.90;;;;;;4997857;28;20121;-80
2022/10/01 11:12:06;;;;;;;0.68;0.40;;;14.50;99.90;;;;;;4979143;28;20041;-79
2022/10/01 11:14:53;;;;;;;0.40;0.22;;;14.20;99.90;;;;;;4993640;28;20052;-79
2022/10/01 11:17:35;;;;;;;1.30;0.35;;;14.10;99.90;;;;;;4970210;28;20514;-79
2022/10/01 11:20:01;;;;;;;1.33;0.60;;;14.00;99.90;;;;;;4978729;28;20045;-79
2022/10/01 11:22:39;;;;;;;1.05;0.50;;;13.90;99.90;;;;;;4977794;28;20042;-79
2022/10/01 11:25:19;;;;;;;0.40;0.40;;;13.80;99.90;;;;;;4975063;28;20505;-79
2022/10/01 11:27:48;;;;;;;0.68;0.40;;;13.70;99.90;;;;;;4993677;28;20061;-79
2022/10/01 11:30:24;;;;;;;0.38;0.38;;;13.70;99.90;;;;;;4980193;28;20501;-79
2022/10/01 11:33:14;;;;;;;1.05;0.60;;;13.60;99.90;;;;;;4980307;28;20511;-79
2022/10/01 11:35:49;;;;;;;0.50;0.50;;;13.60;99.90;;;;;;4980580;28;20041;-79
2022/10/01 11:38:26;;;;;;;0.60;0.60;;;13.80;99.90;;;;;;4980732;28;20714;-79
2022/10/01 11:41:08;;;;;;;0.50;0.50;;;14.00;99.90;;;;;;4994953;28;20465;-79
2022/10/01 11:43:58;;;;;;;0.40;0.40;;;14.30;99.90;;;;;;4974964;28;20038;-79
2022/10/01 11:46:49;;;;;;;0.68;0.60;;;14.70;99.90;;;;;;4991529;28;20053;-80
2022/10/01 11:49:19;;;;;;;1.08;0.60;;;15.20;99.90;;;;;;4996608;28;20396;-80
2022/10/01 11:51:53;;;;;;;0.77;0.50;;;15.80;99.90;;;;;;4974111;28;20405;-79
2022/10/01 11:54:25;;;;;;;0.85;0.47;;;16.20;99.90;;;;;;4994187;28;20042;-80
2022/10/01 11:59:48;;;;;;;0.88;0.60;;;16.60;99.90;;;;;;4994505;28;20300;-79
2022/10/01 12:02:47;;;;;;;1.85;0.50;;;16.70;99.90;;;;;;4976651;28;20045;-80
2022/10/01 12:05:24;;;;;;;0.35;0.35;;;16.90;99.90;;;;;;4982593;28;20412;-80
2022/10/01 12:08:11;;;;;;;0.65;0.63;;;16.80;99.90;;;;;;4989539;28;20057;-80
2022/10/01 12:10:38;;;;;;;0.90;0.38;;;16.70;99.90;;;;;;4980913;28;20044;-80
2022/10/01 12:13:07;;;;;;;0.63;0.43;;;16.50;99.90;;;;;;4966919;28;20049;-81
2022/10/01 12:15:40;;;;;;;0.52;0.35;;;16.40;99.90;;;;;;4988473;28;20037;-80
2022/10/01 12:18:47;;;;;;;0.65;0.38;;;16.40;99.90;;;;;;4984390;28;20513;-80
2022/10/01 12:21:49;;;;;;;1.25;0.55;;;16.40;99.90;;;;;;4981099;28;20455;-81
2022/10/01 12:24:26;;;;;;;0.43;0.30;;;16.20;99.90;;;;;;4983975;28;20124;-81
2022/10/01 12:26:54;;;;;;;0.80;0.40;;;16.00;99.90;;;;;;4988470;28;20050;-81
2022/10/01 12:29:53;;;;;;;0.57;0.47;;;15.90;99.90;;;;;;4988530;28;20089;-80
2022/10/01 12:32:33;;;;;;;1.10;0.60;;;15.80;99.90;;;;;;5000665;28;20046;-80
2022/10/01 12:35:15;;;;;;;1.02;0.73;;;15.70;99.90;;;;;;5005985;28;20084;-81
2022/10/01 12:38:02;;;;;;;1.08;0.60;;;16.00;99.90;;;;;;4991650;28;20049;-80
2022/10/01 12:40:39;;;;;;;2.25;0.60;;;16.40;99.90;;;;;;4993009;28;20056;-82
2022/10/01 12:43:30;;;;;;;1.13;0.52;;;16.60;99.90;;;;;;4992640;28;20042;-81
2022/10/01 12:46:23;;;;;;;2.15;0.52;;;16.70;99.90;;;;;;5003249;28;20050;-80
2022/10/01 12:49:02;;;;;;;2.25;0.50;;;16.60;99.90;;;;;;4953020;28;20404;-81
2022/10/01 12:51:45;;;;;;;1.00;0.40;;;16.60;99.90;;;;;;4991352;28;20038;-81
2022/10/01 12:54:40;;;;;;;0.83;0.60;;;16.80;99.90;;;;;;4990119;28;20041;-82
2022/10/01 12:57:35;;;;;;;1.30;0.50;;;16.90;99.90;;;;;;4985843;28;20065;-79
2022/10/01 13:00:14;;;;;;;1.20;0.40;;;17.00;99.90;;;;;;4993295;28;20097;-80
2022/10/01 13:02:51;;;;;;;0.90;0.50;;;17.00;99.90;;;;;;4996555;28;20038;-80
2022/10/01 13:05:55;;;;;;;0.45;0.40;;;16.90;99.90;;;;;;4996919;28;20046;-79
2022/10/01 13:08:42;;;;;;;0.65;0.40;;;17.00;99.90;;;;;;4991918;28;20065;-79
2022/10/01 13:11:24;;;;;;;0.88;0.40;;;16.90;99.90;;;;;;4988171;28;20088;-80
2022/10/01 13:13:52;;;;;;;0.80;0.40;;;16.60;99.90;;;;;;5000639;28;20038;-79
2022/10/01 13:16:36;;;;;;;1.23;0.50;;;16.30;99.90;;;;;;5001968;28;20080;-79